Time;durP1;ratioP1;P1;durP2;ratioP2;P2;SDS_P1;SDS_P2;PMS_P1;PMS_P2;Temp;Humidity;BMP_temperature;BMP_pressure;BME280_temperature;BME280_humidity;BME280_pressure;Samples;Min_cycle;Max_cycle;Signal;HPM_P1;HPM_P2
2022/09/01 00:00:40;;;;;;;1.90;1.75;;;22.40;99.90;;;;;;5113089;28;20027;-76
2022/09/01 00:03:09;;;;;;;2.28;1.75;;;22.30;99.90;;;;;;5107749;28;20485;-76
2022/09/01 00:05:36;;;;;;;2.30;2.10;;;22.30;99.90;;;;;;5088515;28;20028;-76
2022/09/01 00:08:03;;;;;;;2.25;1.90;;;22.30;99.90;;;;;;5096988;28;20397;-76
2022/09/01 00:10:28;;;;;;;7.70;2.10;;;22.30;99.90;;;;;;5111858;28;20485;-76
2022/09/01 00:12:54;;;;;;;1.77;1.67;;;22.30;99.90;;;;;;5109080;27;20066;-76
2022/09/01 00:15:20;;;;;;;2.58;2.10;;;22.30;99.90;;;;;;5097151;28;20046;-76
2022/09/01 00:17:46;;;;;;;3.92;2.00;;;22.20;99.90;;;;;;5094003;28;20016;-76
2022/09/01 00:20:12;;;;;;;3.22;1.90;;;22.20;99.90;;;;;;5100482;28;20028;-76
2022/09/01 00:22:38;;;;;;;2.20;2.00;;;22.10;99.90;;;;;;5095376;28;20024;-75
2022/09/01 00:25:06;;;;;;;4.57;2.00;;;22.10;99.90;;;;;;5105603;28;20493;-76
2022/09/01 00:27:32;;;;;;;2.30;1.80;;;22.10;99.90;;;;;;5094085;28;20034;-76
2022/09/01 00:29:59;;;;;;;2.10;2.00;;;22.00;99.90;;;;;;5109112;28;20115;-76
2022/09/01 00:32:25;;;;;;;2.17;1.67;;;22.00;99.90;;;;;;5111197;28;20024;-77
2022/09/01 00:34:50;;;;;;;1.75;1.63;;;21.90;99.90;;;;;;5096787;28;20020;-77
2022/09/01 00:37:16;;;;;;;1.95;1.80;;;21.90;99.90;;;;;;5094472;28;20020;-77
2022/09/01 00:39:42;;;;;;;3.65;1.80;;;21.90;99.90;;;;;;5107165;28;20478;-76
2022/09/01 00:42:08;;;;;;;1.92;1.60;;;21.90;99.90;;;;;;5112942;28;20073;-77
2022/09/01 00:44:35;;;;;;;2.55;1.70;;;21.90;99.90;;;;;;5099150;28;20024;-77
2022/09/01 00:47:01;;;;;;;2.65;1.70;;;21.90;99.90;;;;;;5093622;28;20027;-76
2022/09/01 00:49:39;;;;;;;2.03;1.90;;;21.90;99.90;;;;;;5101846;28;20469;-76
2022/09/01 00:52:10;;;;;;;1.83;1.73;;;21.90;99.90;;;;;;5092433;28;20107;-77
2022/09/01 00:54:42;;;;;;;1.73;1.52;;;21.90;99.90;;;;;;5098730;28;20024;-76
2022/09/01 00:57:09;;;;;;;1.77;1.67;;;21.90;99.90;;;;;;5093736;28;20364;-77
2022/09/01 00:59:45;;;;;;;1.80;1.70;;;21.90;99.90;;;;;;5114528;27;20111;-75
2022/09/01 01:02:11;;;;;;;1.58;1.48;;;21.90;99.90;;;;;;5092141;28;20028;-77
2022/09/01 01:04:37;;;;;;;2.78;1.83;;;21.90;99.90;;;;;;5107494;28;20543;-76
2022/09/01 01:07:05;;;;;;;6.07;1.77;;;21.90;99.90;;;;;;5112469;28;20031;-76
2022/09/01 01:09:35;;;;;;;1.70;1.60;;;21.80;99.90;;;;;;5106658;28;20024;-76
2022/09/01 01:12:03;;;;;;;1.83;1.70;;;21.80;99.90;;;;;;5111646;28;20092;-76
2022/09/01 01:14:30;;;;;;;1.75;1.65;;;21.80;99.90;;;;;;5097999;28;20052;-77
2022/09/01 01:16:57;;;;;;;2.00;1.80;;;21.70;99.90;;;;;;5112893;28;20376;-77
2022/09/01 01:23:08;;;;;;;1.90;1.80;;;21.70;99.90;;;;;;5095125;28;20027;-77
2022/09/01 01:25:37;;;;;;;1.70;1.60;;;21.60;99.90;;;;;;5110277;28;20035;-76
2022/09/01 01:28:17;;;;;;;3.28;1.67;;;21.60;99.90;;;;;;5107126;28;20227;-76
2022/09/01 01:30:51;;;;;;;2.45;1.77;;;21.60;99.90;;;;;;5091494;28;20027;-76
2022/09/01 01:33:25;;;;;;;2.85;1.95;;;21.60;99.90;;;;;;5098573;28;20020;-77
2022/09/01 01:35:56;;;;;;;1.77;1.67;;;21.60;99.90;;;;;;5111262;28;20051;-76
2022/09/01 01:38:23;;;;;;;3.45;1.90;;;21.60;99.90;;;;;;5106608;28;20024;-76
2022/09/01 01:40:50;;;;;;;1.80;1.70;;;21.60;99.90;;;;;;5098012;28;20031;-76
2022/09/01 01:43:20;;;;;;;1.83;1.58;;;21.60;99.90;;;;;;5097693;28;20027;-78
2022/09/01 01:45:50;;;;;;;2.58;1.25;;;21.60;99.90;;;;;;5111296;28;20531;-76
2022/09/01 01:48:23;;;;;;;1.45;1.35;;;21.60;99.90;;;;;;5106559;28;20114;-76
2022/09/01 01:50:49;;;;;;;;;;;21.60;99.90;;;;;;5099866;27;20020;-76
2022/09/01 01:53:18;;;;;;;1.50;1.40;;;21.60;99.90;;;;;;5097334;28;19908;-78
2022/09/01 01:55:48;;;;;;;1.23;1.23;;;21.60;99.90;;;;;;5111043;28;20084;-76
2022/09/01 01:58:15;;;;;;;3.05;1.35;;;21.60;99.90;;;;;;5106563;28;20596;-76
2022/09/01 02:00:43;;;;;;;3.88;1.38;;;21.50;99.90;;;;;;5109707;28;20024;-76
2022/09/01 02:03:11;;;;;;;1.40;1.30;;;21.50;99.90;;;;;;5108031;28;20028;-76
2022/09/01 02:05:38;;;;;;;1.83;1.45;;;21.50;99.90;;;;;;5086589;28;20020;-76
2022/09/01 02:08:09;;;;;;;1.50;1.40;;;21.50;99.90;;;;;;5096059;28;20032;-77
2022/09/01 02:10:46;;;;;;;1.25;1.15;;;21.50;99.90;;;;;;5085843;28;20019;-77
2022/09/01 02:13:15;;;;;;;1.27;1.17;;;21.50;99.90;;;;;;5096438;28;20019;-76
2022/09/01 02:15:45;;;;;;;3.47;1.30;;;21.50;99.90;;;;;;5110561;28;20044;-77
2022/09/01 02:18:15;;;;;;;2.60;1.42;;;21.40;99.90;;;;;;5104270;28;20102;-75
2022/09/01 02:20:41;;;;;;;2.63;1.60;;;21.30;99.90;;;;;;5098670;28;20032;-76
2022/09/01 02:23:10;;;;;;;2.70;1.70;;;21.10;99.90;;;;;;5094655;28;20078;-77
2022/09/01 02:25:43;;;;;;;2.60;1.65;;;20.90;99.90;;;;;;5085992;28;20111;-76
2022/09/01 02:28:14;;;;;;;2.42;1.63;;;20.70;99.90;;;;;;5094409;28;20054;-75
2022/09/01 02:30:42;;;;;;;7.93;1.83;;;20.40;99.90;;;;;;5085347;28;20028;-76
2022/09/01 02:33:08;;;;;;;3.00;1.50;;;20.20;99.90;;;;;;5094380;28;20399;-75
2022/09/01 02:35:36;;;;;;;3.25;1.63;;;20.00;99.90;;;;;;5109912;28;20483;-75
2022/09/01 02:38:03;;;;;;;2.28;1.75;;;19.80;99.90;;;;;;5106882;28;20031;-75
2022/09/01 02:40:30;;;;;;;2.28;1.50;;;19.60;99.90;;;;;;5092363;28;20229;-74
2022/09/01 02:42:58;;;;;;;4.60;1.70;;;19.50;99.90;;;;;;5095715;28;20114;-74
2022/09/01 02:45:28;;;;;;;3.83;1.60;;;19.40;99.90;;;;;;5105822;28;20474;-73
2022/09/01 02:47:56;;;;;;;2.40;2.10;;;19.30;99.90;;;;;;5107028;28;20047;-74
2022/09/01 02:50:23;;;;;;;1.60;1.50;;;19.30;99.90;;;;;;5100382;28;20027;-74
2022/09/01 02:52:51;;;;;;;1.20;1.20;;;19.20;99.90;;;;;;5094197;28;20081;-75
2022/09/01 02:55:20;;;;;;;2.78;1.42;;;19.20;99.90;;;;;;5108525;28;20051;-76
2022/09/01 02:57:54;;;;;;;2.20;1.50;;;19.20;99.90;;;;;;5107237;28;20026;-76
2022/09/01 03:00:27;;;;;;;1.80;1.35;;;19.10;99.90;;;;;;5107132;28;20039;-76
2022/09/01 03:02:55;;;;;;;1.60;1.50;;;19.10;99.90;;;;;;5105403;28;20027;-77
2022/09/01 03:05:25;;;;;;;1.80;1.30;;;19.10;99.90;;;;;;5108305;28;20042;-77
2022/09/01 03:08:00;;;;;;;1.75;1.20;;;19.10;99.90;;;;;;5105491;28;20103;-76
2022/09/01 03:10:34;;;;;;;2.22;1.40;;;19.10;99.90;;;;;;5107346;28;20051;-75
2022/09/01 03:13:04;;;;;;;1.63;1.35;;;19.00;99.90;;;;;;5105402;28;20016;-75
2022/09/01 03:15:30;;;;;;;1.52;1.30;;;19.00;99.90;;;;;;5108942;28;20020;-74
2022/09/01 03:17:58;;;;;;;1.80;1.30;;;18.90;99.90;;;;;;5104624;28;20023;-76
2022/09/01 03:20:24;;;;;;;1.25;1.00;;;18.80;99.90;;;;;;5092822;28;20024;-73
2022/09/01 03:22:52;;;;;;;0.82;0.82;;;18.80;99.90;;;;;;5092960;28;20487;-74
2022/09/01 03:25:18;;;;;;;1.15;1.00;;;18.80;99.90;;;;;;5108030;27;20035;-74
2022/09/01 03:27:44;;;;;;;1.45;1.08;;;18.80;99.90;;;;;;5094054;28;20596;-73
2022/09/01 03:30:11;;;;;;;1.33;1.00;;;18.80;99.90;;;;;;5089650;28;20027;-73
2022/09/01 03:32:37;;;;;;;1.08;0.90;;;18.80;99.90;;;;;;5091557;28;20470;-73
2022/09/01 03:35:03;;;;;;;1.30;0.90;;;18.80;99.90;;;;;;5094638;28;20032;-73
2022/09/01 03:37:29;;;;;;;1.10;0.80;;;18.80;99.90;;;;;;5090836;28;20031;-73
2022/09/01 03:39:56;;;;;;;0.57;0.55;;;18.80;99.90;;;;;;5107038;28;20032;-74
2022/09/01 03:42:26;;;;;;;0.60;0.55;;;18.80;99.90;;;;;;5108366;28;20460;-73
2022/09/01 03:44:53;;;;;;;0.65;0.65;;;18.90;99.90;;;;;;5103745;28;20024;-72
2022/09/01 03:47:20;;;;;;;2.00;0.70;;;18.80;99.90;;;;;;5108211;28;20026;-73
2022/09/01 03:49:48;;;;;;;2.97;0.60;;;18.80;99.90;;;;;;5101907;28;20032;-73
2022/09/01 03:52:16;;;;;;;1.42;0.82;;;18.80;99.90;;;;;;5094272;28;20016;-73
2022/09/01 03:54:42;;;;;;;0.32;0.32;;;18.80;99.90;;;;;;5107375;28;20512;-74
2022/09/01 03:57:09;;;;;;;4.65;0.60;;;18.70;99.90;;;;;;5113114;28;20374;-73
2022/09/01 03:59:43;;;;;;;0.50;0.50;;;18.80;99.90;;;;;;5108696;28;20367;-73
2022/09/01 04:02:09;;;;;;;0.60;0.60;;;18.80;99.90;;;;;;5113102;28;20027;-73
2022/09/01 04:04:35;;;;;;;0.40;0.40;;;18.80;99.90;;;;;;5108548;28;20020;-74
2022/09/01 04:07:01;;;;;;;1.27;0.50;;;18.80;99.90;;;;;;5112534;28;20431;-74
2022/09/01 04:09:27;;;;;;;0.50;0.50;;;18.80;99.90;;;;;;5107233;28;20054;-75
2022/09/01 04:11:53;;;;;;;2.33;0.40;;;18.70;99.90;;;;;;5114743;28;20034;-73
2022/09/01 04:14:19;;;;;;;1.08;0.52;;;18.80;99.90;;;;;;5106895;28;20469;-74
2022/09/01 04:19:35;;;;;;;0.30;0.30;;;18.70;99.90;;;;;;5107374;28;20390;-75
2022/09/01 04:22:02;;;;;;;0.60;0.53;;;18.70;99.90;;;;;;5094220;28;20024;-73
2022/09/01 04:24:31;;;;;;;1.65;0.40;;;18.70;99.90;;;;;;5107448;28;20532;-74
2022/09/01 04:27:00;;;;;;;0.75;0.50;;;18.70;99.90;;;;;;5114182;27;20011;-74
2022/09/01 04:29:27;;;;;;;1.40;0.60;;;18.70;99.90;;;;;;5107085;28;20060;-73
2022/09/01 04:32:02;;;;;;;0.60;0.30;;;18.70;99.90;;;;;;5114232;28;20028;-75
2022/09/01 04:34:31;;;;;;;0.40;0.40;;;18.60;99.90;;;;;;5107369;28;20103;-74
2022/09/01 04:36:57;;;;;;;0.68;0.60;;;18.60;99.90;;;;;;5113823;28;20040;-75
2022/09/01 04:39:23;;;;;;;3.10;0.50;;;18.60;99.90;;;;;;5106459;28;20035;-75
2022/09/01 04:41:49;;;;;;;1.33;0.50;;;18.60;99.90;;;;;;5114180;28;20420;-74
2022/09/01 04:44:17;;;;;;;0.40;0.40;;;18.60;99.90;;;;;;5106059;28;20020;-74
2022/09/01 04:46:49;;;;;;;0.63;0.47;;;18.60;99.90;;;;;;5112528;28;20254;-74
2022/09/01 04:49:19;;;;;;;0.87;0.40;;;18.60;99.90;;;;;;5104462;28;20028;-75
2022/09/01 04:51:49;;;;;;;0.40;0.40;;;18.60;99.90;;;;;;5093564;28;20494;-75
2022/09/01 04:54:15;;;;;;;0.40;0.40;;;18.70;99.90;;;;;;5099222;28;20028;-75
2022/09/01 04:56:44;;;;;;;0.70;0.60;;;18.70;99.90;;;;;;5092210;28;20020;-74
2022/09/01 04:59:11;;;;;;;3.00;0.60;;;18.70;99.90;;;;;;5105220;28;20028;-75
2022/09/01 05:01:49;;;;;;;0.65;0.60;;;18.80;99.90;;;;;;5113308;28;20169;-74
2022/09/01 05:04:21;;;;;;;0.65;0.60;;;18.80;99.90;;;;;;5103013;28;20027;-74
2022/09/01 05:06:51;;;;;;;0.77;0.50;;;18.80;99.90;;;;;;5113568;28;20474;-74
2022/09/01 05:09:19;;;;;;;0.60;0.60;;;18.90;99.90;;;;;;5101191;28;20367;-74
2022/09/01 05:11:45;;;;;;;1.83;0.80;;;19.00;99.90;;;;;;5091828;28;20031;-75
2022/09/01 05:14:17;;;;;;;0.50;0.50;;;19.00;99.90;;;;;;5103059;28;20035;-74
2022/09/01 05:16:44;;;;;;;1.30;0.70;;;19.00;99.90;;;;;;5072787;28;20034;-75
2022/09/01 05:19:16;;;;;;;0.85;0.60;;;19.00;99.90;;;;;;5098092;28;20288;-74
2022/09/01 05:21:45;;;;;;;0.80;0.80;;;19.10;99.90;;;;;;5072660;28;20031;-75
2022/09/01 05:24:20;;;;;;;0.60;0.60;;;19.10;99.90;;;;;;5095321;28;20095;-75
2022/09/01 05:26:49;;;;;;;0.70;0.70;;;19.20;99.90;;;;;;5071298;28;20070;-76
2022/09/01 05:29:16;;;;;;;0.70;0.70;;;19.20;99.90;;;;;;5096606;28;20039;-76
2022/09/01 05:31:46;;;;;;;0.73;0.73;;;19.20;99.90;;;;;;5091297;28;20023;-76
2022/09/01 05:34:18;;;;;;;1.30;0.93;;;19.20;99.90;;;;;;5104195;28;20057;-75
2022/09/01 05:36:45;;;;;;;2.22;0.90;;;19.30;99.90;;;;;;5072362;28;20048;-76
2022/09/01 05:39:11;;;;;;;0.68;0.68;;;19.30;99.90;;;;;;5101658;28;20039;-76
2022/09/01 05:41:40;;;;;;;2.17;0.70;;;19.30;99.90;;;;;;5112670;28;20023;-76
2022/09/01 05:44:07;;;;;;;0.70;0.70;;;19.30;99.90;;;;;;5106063;28;20436;-75
2022/09/01 05:46:35;;;;;;;0.50;0.50;;;19.30;99.90;;;;;;5111661;28;20024;-75
2022/09/01 05:49:02;;;;;;;0.60;0.60;;;19.40;99.90;;;;;;5103910;28;20057;-77
2022/09/01 05:51:29;;;;;;;0.60;0.60;;;19.40;99.90;;;;;;5092636;28;20383;-76
2022/09/01 05:53:57;;;;;;;4.30;0.85;;;19.50;99.90;;;;;;5101441;28;20027;-75
2022/09/01 05:56:26;;;;;;;1.17;0.73;;;19.50;99.90;;;;;;5110997;28;20027;-75
2022/09/01 05:58:53;;;;;;;0.60;0.60;;;19.60;99.90;;;;;;5106423;28;20024;-75
2022/09/01 06:01:25;;;;;;;1.27;0.88;;;19.60;99.90;;;;;;5109805;28;20024;-76
2022/09/01 06:03:53;;;;;;;0.65;0.65;;;19.70;99.90;;;;;;5106238;28;20106;-74
2022/09/01 06:06:21;;;;;;;1.85;0.88;;;19.80;99.90;;;;;;5110635;28;20027;-75
2022/09/01 06:08:52;;;;;;;0.70;0.60;;;19.80;99.90;;;;;;5104950;28;20031;-74
2022/09/01 06:11:18;;;;;;;1.55;0.90;;;19.90;99.90;;;;;;5109314;28;20034;-75
2022/09/01 06:13:46;;;;;;;1.48;0.65;;;19.90;99.90;;;;;;5106061;28;20039;-76
2022/09/01 06:16:14;;;;;;;0.80;0.80;;;20.00;99.90;;;;;;5109990;28;20020;-75
2022/09/01 06:18:42;;;;;;;2.20;0.90;;;20.10;99.90;;;;;;5105917;28;20102;-75
2022/09/01 06:21:13;;;;;;;1.48;0.57;;;20.10;99.90;;;;;;5094885;28;20024;-74
2022/09/01 06:23:42;;;;;;;0.73;0.70;;;20.10;99.90;;;;;;5095994;28;20047;-72
2022/09/01 06:26:27;;;;;;;0.70;0.70;;;20.20;99.90;;;;;;5093268;28;20478;-75
2022/09/01 06:28:55;;;;;;;1.10;1.02;;;20.30;99.90;;;;;;5100428;28;20530;-75
2022/09/01 06:31:23;;;;;;;0.82;0.82;;;20.30;99.90;;;;;;5110503;28;20023;-75
2022/09/01 06:33:52;;;;;;;1.75;1.10;;;20.30;99.90;;;;;;5104503;28;20024;-75
2022/09/01 06:36:22;;;;;;;2.30;1.05;;;20.30;99.90;;;;;;5110330;28;20047;-75
2022/09/01 06:38:51;;;;;;;1.00;0.90;;;20.30;99.90;;;;;;5104188;28;20034;-76
2022/09/01 06:41:18;;;;;;;1.10;1.00;;;20.30;99.90;;;;;;5110311;28;20024;-75
2022/09/01 06:43:49;;;;;;;1.52;0.98;;;20.40;99.90;;;;;;5104023;28;20393;-75
2022/09/01 06:46:16;;;;;;;1.95;1.05;;;20.40;99.90;;;;;;5110302;28;20294;-74
2022/09/01 06:48:45;;;;;;;3.47;1.52;;;20.50;99.90;;;;;;5104105;28;20500;-73
2022/09/01 06:51:16;;;;;;;1.67;1.20;;;20.50;99.90;;;;;;5090648;28;20050;-76
2022/09/01 06:53:43;;;;;;;1.65;1.40;;;20.60;99.90;;;;;;5095849;28;20111;-75
2022/09/01 06:56:12;;;;;;;1.52;1.15;;;20.80;99.90;;;;;;5092718;28;20543;-78
2022/09/01 06:58:45;;;;;;;2.58;1.33;;;20.80;99.90;;;;;;5098045;28;20569;-75
2022/09/01 07:01:14;;;;;;;4.68;1.30;;;20.90;99.90;;;;;;5110142;28;20020;-76
2022/09/01 07:03:41;;;;;;;1.10;1.10;;;21.00;99.90;;;;;;5099264;28;20023;-76
2022/09/01 07:06:08;;;;;;;1.00;1.00;;;21.10;99.90;;;;;;5107045;28;20027;-75
2022/09/01 07:08:38;;;;;;;1.63;1.10;;;21.10;99.90;;;;;;5105194;28;20032;-76
2022/09/01 07:11:15;;;;;;;3.05;1.15;;;21.20;99.90;;;;;;5110068;28;20016;-76
2022/09/01 07:13:44;;;;;;;0.98;0.98;;;21.20;99.90;;;;;;5105200;28;20027;-76
2022/09/01 07:16:19;;;;;;;0.90;0.90;;;21.30;99.90;;;;;;5108729;28;20363;-76
2022/09/01 07:18:44;;;;;;;1.10;1.00;;;21.30;99.90;;;;;;5100537;28;20017;-78
2022/09/01 07:21:10;;;;;;;1.13;1.02;;;21.40;99.90;;;;;;5093940;28;20596;-76
2022/09/01 07:23:37;;;;;;;0.90;0.90;;;21.40;99.90;;;;;;5095581;28;20491;-76
2022/09/01 07:26:05;;;;;;;1.25;1.10;;;21.50;99.90;;;;;;5093039;28;20027;-76
2022/09/01 07:28:32;;;;;;;3.70;1.42;;;21.50;99.90;;;;;;5099937;28;20391;-77
2022/09/01 07:30:59;;;;;;;1.20;1.10;;;21.60;99.90;;;;;;5096776;28;20084;-77
2022/09/01 07:33:26;;;;;;;1.42;0.90;;;21.70;99.90;;;;;;5099647;28;20024;-75
2022/09/01 07:35:54;;;;;;;5.05;1.00;;;21.80;99.90;;;;;;5113469;27;20146;-75
2022/09/01 07:38:21;;;;;;;1.50;0.80;;;21.80;99.90;;;;;;5107546;28;20363;-75
2022/09/01 07:40:51;;;;;;;2.83;1.02;;;21.90;99.90;;;;;;5113757;28;20028;-74
2022/09/01 07:43:21;;;;;;;1.23;1.05;;;22.00;99.90;;;;;;5108884;28;20037;-76
2022/09/01 07:45:49;;;;;;;1.23;1.08;;;22.00;99.90;;;;;;5112432;28;20499;-75
2022/09/01 07:48:19;;;;;;;1.23;1.20;;;21.90;99.90;;;;;;5108608;28;20032;-76
2022/09/01 07:50:47;;;;;;;1.20;1.00;;;21.80;99.90;;;;;;5099578;28;20027;-76
2022/09/01 07:53:21;;;;;;;1.73;1.25;;;21.80;99.90;;;;;;5097516;28;20026;-77
2022/09/01 07:55:51;;;;;;;1.00;0.90;;;21.90;99.90;;;;;;5096111;28;20016;-77
2022/09/01 07:58:22;;;;;;;1.45;0.90;;;21.90;99.90;;;;;;5100314;28;20047;-75
2022/09/01 08:00:50;;;;;;;1.57;1.23;;;22.00;99.90;;;;;;5112050;28;20094;-75
2022/09/01 08:03:18;;;;;;;3.42;1.10;;;22.00;99.90;;;;;;5108205;28;20015;-77
2022/09/01 08:05:44;;;;;;;2.15;1.00;;;22.10;99.90;;;;;;5113305;28;20047;-75
2022/09/01 08:08:09;;;;;;;1.25;1.15;;;22.10;99.90;;;;;;5107139;28;20509;-77
2022/09/01 08:10:40;;;;;;;1.42;1.33;;;22.20;99.90;;;;;;5113047;28;20024;-76
2022/09/01 08:13:08;;;;;;;1.77;1.30;;;22.30;99.90;;;;;;5108706;28;20020;-76
2022/09/01 08:15:36;;;;;;;2.58;1.25;;;22.30;99.90;;;;;;5112676;28;20543;-76
2022/09/01 08:18:02;;;;;;;3.83;1.20;;;22.40;99.70;;;;;;5108722;28;20027;-75
2022/09/01 08:20:29;;;;;;;1.67;1.48;;;22.50;99.90;;;;;;5103035;28;20020;-76
2022/09/01 08:22:55;;;;;;;3.80;1.27;;;22.60;99.50;;;;;;5097553;28;20036;-76
2022/09/01 08:25:21;;;;;;;2.85;1.50;;;22.60;98.70;;;;;;5096149;28;20028;-76
2022/09/01 08:27:46;;;;;;;2.22;1.25;;;22.60;98.60;;;;;;5096553;28;20039;-77
2022/09/01 08:30:12;;;;;;;2.08;1.55;;;22.60;98.50;;;;;;5109749;28;20024;-78
2022/09/01 08:32:40;;;;;;;4.57;1.38;;;22.60;98.50;;;;;;5111579;28;20016;-79
2022/09/01 08:35:11;;;;;;;3.75;1.50;;;22.60;98.20;;;;;;5094306;28;20478;-77
2022/09/01 08:37:37;;;;;;;2.08;1.40;;;22.60;97.90;;;;;;5094427;28;20032;-76
2022/09/01 08:40:09;;;;;;;2.70;1.50;;;22.60;98.20;;;;;;5110960;28;20051;-77
2022/09/01 08:42:56;;;;;;;5.85;1.80;;;22.70;97.80;;;;;;5109705;28;20027;-77
2022/09/01 08:45:52;;;;;;;1.67;1.30;;;22.70;97.60;;;;;;5104772;28;20020;-77
2022/09/01 08:48:23;;;;;;;2.55;1.40;;;22.90;97.60;;;;;;5100660;28;20048;-77
2022/09/01 08:51:01;;;;;;;1.87;1.60;;;23.00;97.50;;;;;;5100328;28;20149;-75
2022/09/01 08:53:42;;;;;;;3.33;1.45;;;23.10;97.20;;;;;;5098690;28;20024;-77
2022/09/01 08:56:10;;;;;;;1.92;1.40;;;23.10;96.70;;;;;;5110791;28;20248;-76
2022/09/01 08:58:35;;;;;;;2.53;1.55;;;23.10;97.10;;;;;;5107799;28;20478;-78
2022/09/01 09:01:18;;;;;;;1.83;1.50;;;23.10;96.60;;;;;;5112249;28;20016;-77
2022/09/01 09:04:15;;;;;;;1.20;1.00;;;23.10;96.40;;;;;;5101871;28;20024;-78
2022/09/01 09:06:42;;;;;;;4.28;1.50;;;23.10;96.10;;;;;;5071669;28;20059;-78
2022/09/01 09:09:08;;;;;;;2.05;1.70;;;23.10;96.00;;;;;;5101687;28;20047;-77
2022/09/01 09:12:10;;;;;;;1.95;1.30;;;23.10;95.90;;;;;;5111795;28;20042;-77
2022/09/01 09:14:54;;;;;;;4.30;1.55;;;23.10;95.90;;;;;;5107555;28;20020;-78
2022/09/01 09:17:26;;;;;;;3.75;1.52;;;23.20;95.70;;;;;;5110755;28;20024;-78
2022/09/01 09:19:53;;;;;;;2.17;1.40;;;23.10;95.40;;;;;;5103352;28;20020;-77
2022/09/01 09:22:19;;;;;;;2.63;1.48;;;23.10;95.50;;;;;;5093698;28;20020;-77
2022/09/01 09:24:54;;;;;;;3.08;1.55;;;23.10;95.90;;;;;;5099523;28;20406;-77
2022/09/01 09:27:35;;;;;;;2.47;1.58;;;23.10;95.80;;;;;;5092250;28;20043;-77
2022/09/01 09:30:06;;;;;;;2.33;1.42;;;23.10;95.40;;;;;;5109741;28;20033;-78
2022/09/01 09:32:52;;;;;;;3.08;1.80;;;23.20;95.50;;;;;;5105854;28;20015;-76
2022/09/01 09:35:17;;;;;;;4.88;1.67;;;23.30;95.60;;;;;;5090220;28;20041;-75
2022/09/01 09:37:44;;;;;;;1.92;1.48;;;23.30;95.40;;;;;;5080824;28;20069;-77
2022/09/01 09:40:22;;;;;;;2.35;1.60;;;23.40;95.30;;;;;;5109691;28;20032;-77
2022/09/01 09:42:53;;;;;;;2.53;1.70;;;23.50;95.20;;;;;;5107962;28;20028;-77
2022/09/01 09:45:39;;;;;;;1.80;1.33;;;23.60;95.40;;;;;;5095522;28;20030;-77
2022/09/01 09:48:26;;;;;;;3.20;1.60;;;23.80;94.80;;;;;;5096883;28;20024;-77
2022/09/01 09:50:51;;;;;;;1.95;1.48;;;23.90;94.50;;;;;;5088113;28;20487;-77
2022/09/01 09:53:28;;;;;;;2.47;1.60;;;24.10;94.40;;;;;;5083768;28;20015;-77
2022/09/01 09:56:00;;;;;;;1.50;1.40;;;24.20;94.00;;;;;;5107369;28;20558;-77
2022/09/01 09:58:36;;;;;;;2.80;1.60;;;24.40;94.20;;;;;;5102782;28;20063;-78
2022/09/01 10:01:22;;;;;;;1.90;1.70;;;24.60;93.80;;;;;;5105943;28;20097;-77
2022/09/01 10:03:51;;;;;;;1.70;1.60;;;24.70;93.40;;;;;;5102063;28;20019;-77
2022/09/01 10:06:46;;;;;;;2.40;1.60;;;24.90;93.20;;;;;;5107495;28;20455;-77
2022/09/01 10:09:21;;;;;;;2.30;1.40;;;25.10;92.70;;;;;;5099390;28;20075;-78
2022/09/01 10:11:57;;;;;;;6.03;1.58;;;25.20;91.80;;;;;;5068388;28;20616;-78
2022/09/01 10:14:28;;;;;;;2.20;1.60;;;25.30;91.90;;;;;;5100949;28;20118;-78
2022/09/01 10:17:00;;;;;;;2.83;1.60;;;25.30;91.70;;;;;;5108490;28;20030;-77
2022/09/01 10:19:29;;;;;;;2.47;1.70;;;25.30;91.90;;;;;;5099922;28;20035;-78
2022/09/01 10:21:55;;;;;;;5.07;1.42;;;25.50;91.90;;;;;;5088147;28;20024;-79
2022/09/01 10:24:32;;;;;;;1.83;1.45;;;25.60;91.20;;;;;;5100954;28;20020;-76
2022/09/01 10:27:04;;;;;;;2.67;1.63;;;25.70;90.90;;;;;;5108239;28;20157;-79
2022/09/01 10:29:35;;;;;;;1.75;1.42;;;25.70;91.30;;;;;;5098727;28;20041;-78
2022/09/01 10:32:07;;;;;;;5.32;1.83;;;25.80;90.80;;;;;;5107545;28;20477;-77
2022/09/01 10:34:36;;;;;;;2.50;1.70;;;25.80;90.90;;;;;;5101833;28;20020;-75
2022/09/01 10:37:04;;;;;;;3.25;1.52;;;25.80;91.20;;;;;;5107562;28;20036;-80
2022/09/01 10:39:30;;;;;;;5.00;1.73;;;25.70;91.00;;;;;;5101228;28;20020;-78
2022/09/01 10:42:03;;;;;;;4.65;1.80;;;25.70;91.10;;;;;;5106867;28;20035;-76
2022/09/01 10:44:37;;;;;;;1.70;1.60;;;25.70;90.80;;;;;;5099601;28;20028;-78
2022/09/01 10:47:22;;;;;;;1.20;1.20;;;25.60;91.00;;;;;;5107835;28;20345;-77
2022/09/01 10:49:47;;;;;;;3.17;1.90;;;25.60;90.90;;;;;;5091626;28;20058;-76
2022/09/01 10:52:41;;;;;;;3.90;1.83;;;25.50;90.80;;;;;;5088493;28;20027;-77
2022/09/01 10:55:15;;;;;;;2.40;1.75;;;25.40;91.10;;;;;;5088499;28;20027;-76
2022/09/01 10:58:00;;;;;;;3.38;1.50;;;25.50;91.00;;;;;;5088032;28;20030;-77
2022/09/01 11:00:25;;;;;;;2.65;1.60;;;25.50;90.70;;;;;;5104598;28;20618;-77
2022/09/01 11:03:09;;;;;;;3.28;1.80;;;25.50;91.10;;;;;;5103154;28;20053;-76
2022/09/01 11:06:03;;;;;;;2.55;1.60;;;25.60;91.10;;;;;;5106642;28;20493;-77
2022/09/01 11:08:29;;;;;;;6.18;2.47;;;25.70;90.50;;;;;;5101494;28;20047;-76
2022/09/01 11:11:20;;;;;;;3.17;1.70;;;25.70;90.80;;;;;;5106050;28;20024;-76
2022/09/01 11:13:54;;;;;;;3.10;1.85;;;25.60;90.80;;;;;;5101684;28;20019;-76
2022/09/01 11:16:54;;;;;;;2.28;1.50;;;25.50;90.80;;;;;;5106123;28;20026;-77
2022/09/01 11:19:41;;;;;;;2.63;1.52;;;25.60;90.70;;;;;;5099683;28;20559;-77
2022/09/01 11:22:12;;;;;;;4.43;1.60;;;25.70;90.30;;;;;;5107206;28;20049;-77
2022/09/01 11:24:38;;;;;;;3.70;1.87;;;25.70;90.10;;;;;;5102300;28;20112;-77
2022/09/01 11:27:05;;;;;;;1.77;1.58;;;25.80;89.60;;;;;;5107196;28;20305;-76
2022/09/01 11:30:14;;;;;;;2.22;1.60;;;25.90;89.90;;;;;;5100962;28;20032;-75
2022/09/01 11:32:41;;;;;;;2.72;1.90;;;25.90;89.80;;;;;;5042093;28;20160;-77
2022/09/01 11:35:17;;;;;;;8.48;1.73;;;26.00;89.90;;;;;;5030367;28;20029;-77
2022/09/01 11:37:47;;;;;;;1.92;1.70;;;25.90;89.60;;;;;;5054471;28;20044;-77
2022/09/01 11:40:25;;;;;;;2.40;1.67;;;26.10;90.20;;;;;;5080009;28;20054;-78
2022/09/01 11:42:53;;;;;;;2.30;1.80;;;26.20;89.30;;;;;;5075185;28;20020;-78
2022/09/01 11:45:27;;;;;;;2.50;1.67;;;26.10;89.50;;;;;;5081696;28;20031;-77
2022/09/01 11:47:57;;;;;;;2.88;1.77;;;26.20;89.00;;;;;;5069945;28;20027;-76
2022/09/01 11:50:35;;;;;;;3.42;1.80;;;26.30;89.40;;;;;;5081393;28;20513;-77
2022/09/01 11:53:20;;;;;;;4.10;1.70;;;26.30;89.80;;;;;;5070158;28;20123;-78
2022/09/01 11:55:52;;;;;;;2.35;1.50;;;26.30;88.90;;;;;;5074051;28;20097;-78
2022/09/01 11:58:33;;;;;;;2.58;1.58;;;26.30;88.90;;;;;;5079688;28;20797;-78
2022/09/01 12:01:22;;;;;;;3.05;1.60;;;26.50;88.20;;;;;;5078231;28;20032;-76
2022/09/01 12:03:51;;;;;;;2.58;1.40;;;26.50;87.60;;;;;;5073044;28;20033;-76
2022/09/01 12:06:22;;;;;;;4.72;2.03;;;26.50;87.90;;;;;;5077152;28;20067;-77
2022/09/01 12:09:01;;;;;;;2.28;1.73;;;26.60;88.30;;;;;;5071373;28;20028;-76
2022/09/01 12:11:30;;;;;;;2.35;1.38;;;27.20;87.40;;;;;;5077500;28;20479;-77
2022/09/01 12:14:01;;;;;;;3.78;1.60;;;28.60;85.30;;;;;;5079517;28;20040;-80
2022/09/01 12:16:29;;;;;;;3.53;1.52;;;30.50;81.80;;;;;;5080105;28;20029;-77
2022/09/01 12:18:57;;;;;;;1.50;1.40;;;32.50;78.00;;;;;;5078243;28;20036;-78
2022/09/01 12:21:29;;;;;;;4.43;1.38;;;34.40;74.00;;;;;;5080084;28;20158;-77
2022/09/01 12:24:17;;;;;;;4.63;1.58;;;35.70;69.50;;;;;;5078205;28;20025;-78
2022/09/01 12:26:48;;;;;;;1.52;1.42;;;36.00;67.40;;;;;;5082146;28;20020;-78
2022/09/01 12:29:16;;;;;;;2.40;1.60;;;35.60;67.60;;;;;;5080740;28;20035;-78
2022/09/01 12:31:44;;;;;;;4.82;1.73;;;36.10;66.40;;;;;;5080720;28;20070;-77
2022/09/01 12:34:31;;;;;;;3.58;1.60;;;37.30;65.00;;;;;;5081429;28;20390;-78
2022/09/01 12:37:09;;;;;;;2.67;1.50;;;38.50;61.90;;;;;;5098985;28;20514;-78
2022/09/01 12:39:44;;;;;;;1.83;1.70;;;38.00;61.30;;;;;;5101942;28;20026;-77
2022/09/01 12:42:19;;;;;;;1.70;1.60;;;36.80;62.00;;;;;;5107942;28;20034;-77
2022/09/01 12:44:51;;;;;;;3.20;1.48;;;35.00;63.20;;;;;;5104328;28;20051;-78
2022/09/01 12:47:35;;;;;;;3.30;1.70;;;33.40;65.80;;;;;;5098080;28;20028;-77
2022/09/01 12:50:00;;;;;;;5.00;1.60;;;32.00;68.70;;;;;;5101023;28;20482;-75
2022/09/01 12:52:31;;;;;;;1.55;1.45;;;31.30;70.60;;;;;;5096615;28;20056;-77
2022/09/01 12:54:57;;;;;;;1.85;1.60;;;31.00;70.80;;;;;;5102427;28;20229;-78
2022/09/01 12:57:30;;;;;;;2.15;1.83;;;30.80;71.60;;;;;;5098175;28;20616;-78
2022/09/01 13:00:35;;;;;;;1.65;1.40;;;31.20;71.60;;;;;;5099567;28;20020;-79
2022/09/01 13:03:14;;;;;;;2.28;1.60;;;31.30;70.90;;;;;;5061287;27;20025;-77
2022/09/01 13:05:42;;;;;;;2.33;1.58;;;30.90;71.70;;;;;;5104935;28;20028;-80
2022/09/01 13:08:16;;;;;;;2.38;1.65;;;30.30;72.60;;;;;;5095449;28;20036;-76
2022/09/01 13:10:43;;;;;;;1.85;1.70;;;29.80;73.70;;;;;;5098750;28;20019;-76
2022/09/01 13:13:10;;;;;;;2.40;1.77;;;29.40;74.60;;;;;;5106985;28;20117;-77